Welcome to Northern Hawkes Bay. New Zealand.
PWS Header
      nz Flag



Hit Counter


W3C Valid W3C Valid logo


    Wairoa

Select any of the Stations below to visit their websites.










Historic Data from Weather Underground
Select the location of interest below. Wairoa is the default. Please have patience, this Data is slow to load in.
Northern Hawkes Bay Historical Data
Daily Summary for July 12, 2017 Units:  Metric    English   Both
« Previous Day
Next Day »
Daily Weekly Monthly Yearly Custom
  High: Low: Average:
Temperature: 9.5 °C 3.2 °C 6 °C
Dew Point: 7.7 °C 2.6 °C 4.1 °C
Humidity: 98% 72% 88%
Wind Speed: 39.3km/h 0.0km/h 12.2km/h
Wind Gust: 52.6km/h - -
Wind- - WNW
Pressure: 1009.0 hPa 1005.6 hPa -
Precipitation: 5.6 mm    
Historical Graphs
 
 
Tabular Data for July 12, 2017
Time Temperature Dew Point Pressure Wind Wind Speed Wind Gust Humidity Rainfall Rate (Hourly) solar
00:01 4.9 °C 4.2 °C 1009.0 hPa NNW 12.2 km/h 17.2 km/h 95% 0.0 mm 0 W/m2
00:06 4.8 °C 4.1 °C 1009.0 hPa NW 9.7 km/h 17.2 km/h 95% 0.0 mm 0 W/m2
00:11 4.7 °C 3.9 °C 1009.0 hPa NNW 11.1 km/h 17.2 km/h 95% 0.0 mm 0 W/m2
00:16 4.7 °C 3.9 °C 1009.0 hPa NNW 11.1 km/h 15.8 km/h 95% 0.0 mm 0 W/m2
00:21 4.7 °C 3.9 °C 1009.0 hPa NNW 8.7 km/h 17.2 km/h 95% 0.0 mm 0 W/m2
00:26 4.7 °C 3.9 °C 1009.0 hPa NNW 11.1 km/h 17.2 km/h 95% 0.0 mm 0 W/m2
00:31 4.7 °C 3.9 °C 1009.0 hPa NNW 9.7 km/h 17.2 km/h 95% 0.0 mm 0 W/m2
00:36 4.8 °C 4.1 °C 1009.0 hPa NNW 9.7 km/h 18.3 km/h 95% 0.0 mm 0 W/m2
00:41 4.8 °C 4.1 °C 1009.0 hPa NNW 9.7 km/h 18.3 km/h 95% 0.0 mm 0 W/m2
00:46 4.8 °C 4.1 °C 1008.7 hPa NNW 8.7 km/h 18.3 km/h 95% 0.0 mm 0 W/m2
00:51 4.7 °C 3.9 °C 1008.7 hPa NW 9.7 km/h 18.3 km/h 95% 0.0 mm 0 W/m2
00:56 4.6 °C 3.9 °C 1008.7 hPa NNW 5.0 km/h 15.8 km/h 95% 0.0 mm 0 W/m2
01:01 4.5 °C 3.8 °C 1008.7 hPa North 5.0 km/h 15.8 km/h 95% 0.0 mm 0 W/m2
01:06 4.6 °C 3.9 °C 1008.4 hPa North 5.0 km/h 11.1 km/h 95% 0.0 mm 0 W/m2
01:11 4.6 °C 3.9 °C 1008.4 hPa North 2.6 km/h 11.1 km/h 95% 0.0 mm 0 W/m2
01:32 4.6 °C 3.9 °C 1008.4 hPa NNW 7.2 km/h 13.4 km/h 95% 0.0 mm 0 W/m2
01:37 4.5 °C 3.6 °C 1008.4 hPa NW 11.1 km/h 12.2 km/h 94% 0.0 mm 0 W/m2
01:42 4.3 °C 3.4 °C 1008.4 hPa NW 8.7 km/h 14.8 km/h 94% 0.0 mm 0 W/m2
01:48 4.2 °C 3.3 °C 1008.0 hPa NNW 8.7 km/h 14.8 km/h 94% 0.0 mm 0 W/m2
01:53 4.1 °C 3.4 °C 1008.0 hPa NW 8.7 km/h 14.8 km/h 95% 0.0 mm 0 W/m2
01:58 3.9 °C 3.3 °C 1008.0 hPa NW 6.1 km/h 13.4 km/h 96% 0.0 mm 0 W/m2
01:59 3.9 °C 3.3 °C 1008.0 hPa NW 7.2 km/h 13.4 km/h 96% 0.0 mm 0 W/m2
02:04 3.9 °C 3.3 °C 1008.0 hPa NNW 2.6 km/h 13.4 km/h 96% 0.0 mm 0 W/m2
02:09 3.9 °C 3.3 °C 1008.0 hPa NNW 6.1 km/h 12.2 km/h 96% 0.0 mm 0 W/m2
02:14 3.9 °C 3.3 °C 1008.0 hPa NNW 6.1 km/h 12.2 km/h 96% 0.0 mm 0 W/m2
02:19 3.9 °C 3.3 °C 1008.0 hPa NNW 7.2 km/h 9.7 km/h 96% 0.0 mm 0 W/m2
02:24 3.8 °C 3.2 °C 1007.7 hPa NNW 9.7 km/h 14.8 km/h 96% 0.0 mm 0 W/m2
02:29 3.8 °C 3.2 °C 1007.7 hPa NW 8.7 km/h 14.8 km/h 96% 0.0 mm 0 W/m2
02:34 3.9 °C 3.3 °C 1007.3 hPa NW 9.7 km/h 15.8 km/h 96% 0.0 mm 0 W/m2
02:39 3.9 °C 3.4 °C 1007.3 hPa NW 11.1 km/h 15.8 km/h 97% 0.0 mm 0 W/m2
02:44 3.8 °C 3.4 °C 1007.3 hPa NW 8.7 km/h 15.8 km/h 97% 0.0 mm 0 W/m2
02:49 3.7 °C 3.1 °C 1007.3 hPa NW 9.7 km/h 15.8 km/h 96% 0.0 mm 0 W/m2
02:53 3.6 °C 3.0 °C 1007.3 hPa NNW 8.7 km/h 15.8 km/h 96% 0.0 mm 0 W/m2
02:59 3.6 °C 3.0 °C 1007.0 hPa NNW 8.7 km/h 13.4 km/h 96% 0.0 mm 0 W/m2
03:04 3.5 °C 2.9 °C 1007.0 hPa NNW 8.7 km/h 13.4 km/h 96% 0.0 mm 0 W/m2
03:09 3.4 °C 2.9 °C 1007.0 hPa NNW 8.7 km/h 13.4 km/h 97% 0.0 mm 0 W/m2
03:14 3.4 °C 2.9 °C 1007.0 hPa NNW 7.2 km/h 13.4 km/h 97% 0.0 mm 0 W/m2
03:19 3.4 °C 2.9 °C 1007.0 hPa NNW 8.7 km/h 12.2 km/h 97% 0.0 mm 0 W/m2
03:24 3.6 °C 3.2 °C 1007.0 hPa NNW 11.1 km/h 14.8 km/h 97% 0.0 mm 0 W/m2
03:29 3.7 °C 3.3 °C 1007.0 hPa NNW 8.7 km/h 14.8 km/h 97% 0.0 mm 0 W/m2
03:34 3.6 °C 3.2 °C 1006.7 hPa NNW 9.7 km/h 13.4 km/h 97% 0.0 mm 0 W/m2
03:39 3.6 °C 3.2 °C 1006.7 hPa NNW 9.7 km/h 14.8 km/h 97% 0.0 mm 0 W/m2
03:44 3.6 °C 3.2 °C 1006.7 hPa NNW 9.7 km/h 14.8 km/h 97% 0.0 mm 0 W/m2
03:49 3.6 °C 3.2 °C 1006.7 hPa NNW 8.7 km/h 14.8 km/h 97% 0.0 mm 0 W/m2
03:54 3.6 °C 3.2 °C 1006.3 hPa NNW 8.7 km/h 14.8 km/h 97% 0.0 mm 0 W/m2
03:59 3.6 °C 3.2 °C 1006.3 hPa NNW 8.7 km/h 17.2 km/h 97% 0.0 mm 0 W/m2
04:04 3.7 °C 3.3 °C 1006.3 hPa NNW 7.2 km/h 17.2 km/h 97% 0.0 mm 0 W/m2
04:09 3.7 °C 3.1 °C 1006.0 hPa NNW 11.1 km/h 15.8 km/h 96% 0.0 mm 0 W/m2
04:14 3.7 °C 3.1 °C 1006.0 hPa NNW 6.1 km/h 15.8 km/h 96% 0.0 mm 0 W/m2
04:19 3.6 °C 3.0 °C 1006.3 hPa NNW 6.1 km/h 15.8 km/h 96% 0.0 mm 0 W/m2
04:24 3.5 °C 2.9 °C 1006.3 hPa NNW 8.7 km/h 14.8 km/h 96% 0.0 mm 0 W/m2
04:29 3.4 °C 2.8 °C 1006.0 hPa NW 9.7 km/h 15.8 km/h 96% 0.0 mm 0 W/m2
04:34 3.4 °C 2.8 °C 1006.0 hPa NW 8.7 km/h 15.8 km/h 96% 0.0 mm 0 W/m2
04:39 3.4 °C 2.8 °C 1006.0 hPa NNW 8.7 km/h 14.8 km/h 96% 0.0 mm 0 W/m2
04:44 3.4 °C 2.8 °C 1006.0 hPa NNW 9.7 km/h 14.8 km/h 96% 0.0 mm 0 W/m2
04:49 3.4 °C 2.8 °C 1006.0 hPa NNW 9.7 km/h 15.8 km/h 96% 0.0 mm 0 W/m2
04:54 3.4 °C 2.8 °C 1006.0 hPa NNW 8.7 km/h 15.8 km/h 96% 0.0 mm 0 W/m2
04:59 3.4 °C 2.8 °C 1005.6 hPa NNW 8.7 km/h 15.8 km/h 96% 0.0 mm 0 W/m2
05:04 3.4 °C 2.8 °C 1005.6 hPa NW 8.7 km/h 17.2 km/h 96% 0.0 mm 0 W/m2
05:09 3.3 °C 2.7 °C 1005.6 hPa NW 8.7 km/h 17.2 km/h 96% 0.0 mm 0 W/m2
05:14 3.2 °C 2.6 °C 1005.6 hPa NW 6.1 km/h 13.4 km/h 96% 0.0 mm 0 W/m2
05:19 3.2 °C 2.6 °C 1005.6 hPa NW 6.1 km/h 11.1 km/h 96% 0.0 mm 0 W/m2
05:24 3.2 °C 2.6 °C 1005.6 hPa NNW 8.7 km/h 13.4 km/h 96% 0.0 mm 0 W/m2
05:29 3.2 °C 2.6 °C 1005.6 hPa NNW 7.2 km/h 13.4 km/h 96% 0.0 mm 0 W/m2
05:46 3.5 °C 3.1 °C 1005.6 hPa NW 5.0 km/h 11.1 km/h 97% 0.0 mm 0 W/m2
05:51 3.6 °C 3.2 °C 1005.6 hPa NNW 6.1 km/h 12.2 km/h 97% 0.0 mm 0 W/m2
05:56 3.7 °C 3.3 °C 1005.6 hPa NNW 5.0 km/h 12.2 km/h 97% 0.0 mm 0 W/m2
06:01 3.8 °C 3.4 °C 1005.6 hPa NW 5.0 km/h 9.7 km/h 97% 0.0 mm 0 W/m2
06:06 3.8 °C 3.4 °C 1005.6 hPa NNW 5.0 km/h 9.7 km/h 97% 0.0 mm 0 W/m2
06:11 4.0 °C 3.4 °C 1005.6 hPa NNW 8.7 km/h 13.4 km/h 96% 0.0 mm 0 W/m2
06:16 4.2 °C 3.6 °C 1005.6 hPa NNW 7.2 km/h 13.4 km/h 96% 0.0 mm 0 W/m2
06:21 4.2 °C 3.6 °C 1005.6 hPa NNW 6.1 km/h 13.4 km/h 96% 0.0 mm 0 W/m2
06:26 4.2 °C 3.6 °C 1005.6 hPa NW 8.7 km/h 14.8 km/h 96% 0.0 mm 0 W/m2
06:31 4.4 °C 3.7 °C 1005.6 hPa NNW 11.1 km/h 14.8 km/h 95% 0.0 mm 0 W/m2
06:36 4.5 °C 3.8 °C 1005.6 hPa NW 8.7 km/h 15.8 km/h 95% 0.0 mm 0 W/m2
06:41 4.6 °C 3.9 °C 1005.6 hPa NW 7.2 km/h 15.8 km/h 95% 0.0 mm 0 W/m2
06:46 4.7 °C 3.9 °C 1005.6 hPa NNW 5.0 km/h 14.8 km/h 95% 0.0 mm 0 W/m2
06:51 4.8 °C 4.1 °C 1005.6 hPa NNW 7.2 km/h 12.2 km/h 95% 0.0 mm 0 W/m2
06:56 4.9 °C 4.2 °C 1006.0 hPa North 7.2 km/h 12.2 km/h 95% 0.0 mm 0 W/m2
07:01 4.9 °C 4.2 °C 1005.6 hPa NNW 5.0 km/h 12.2 km/h 95% 0.0 mm 0 W/m2
07:06 4.9 °C 4.2 °C 1006.0 hPa NNW 6.1 km/h 12.2 km/h 95% 0.0 mm 0 W/m2
07:11 4.9 °C 4.2 °C 1005.6 hPa NNW 8.7 km/h 12.2 km/h 95% 0.0 mm 0 W/m2
07:16 4.8 °C 4.1 °C 1005.6 hPa NNW 6.1 km/h 11.1 km/h 95% 0.3 mm 0 W/m2
07:21 4.7 °C 3.9 °C 1006.0 hPa NNW 6.1 km/h 11.1 km/h 95% 0.3 mm 0 W/m2
07:26 4.7 °C 3.9 °C 1006.3 hPa NW 9.7 km/h 11.1 km/h 95% 0.3 mm 0 W/m2
07:31 4.8 °C 4.2 °C 1006.3 hPa West 6.1 km/h 13.4 km/h 96% 0.5 mm 0 W/m2
07:36 5.1 °C 4.4 °C 1006.3 hPa WNW 5.0 km/h 13.4 km/h 95% 1.0 mm 0 W/m2
07:41 5.1 °C 4.5 °C 1006.3 hPa NW 5.0 km/h 11.1 km/h 96% 1.0 mm 0 W/m2
07:46 5.1 °C 4.5 °C 1006.3 hPa NW 1.1 km/h 7.2 km/h 96% 1.3 mm 0 W/m2
07:51 5.1 °C 4.5 °C 1006.3 hPa WNW 5.0 km/h 7.2 km/h 96% 1.3 mm 0 W/m2
07:56 5.3 °C 4.7 °C 1006.7 hPa NW 5.0 km/h 7.2 km/h 96% 1.3 mm 0 W/m2
08:01 5.3 °C 4.7 °C 1006.7 hPa NW 3.5 km/h 8.7 km/h 96% 1.5 mm 0 W/m2
08:06 5.4 °C 4.9 °C 1006.7 hPa WNW 1.1 km/h 8.7 km/h 97% 1.8 mm 2 W/m2
08:24 6.5 °C 6.2 °C 1006.7 hPa Calm   8.7 km/h 98% 1.5 mm 18 W/m2
08:29 6.6 °C 6.3 °C 1006.7 hPa NW 2.6 km/h 8.7 km/h 98% 1.3 mm 28 W/m2
08:34 6.7 °C 6.4 °C 1006.7 hPa NW 2.6 km/h 8.7 km/h 98% 1.0 mm 40 W/m2
08:39 6.6 °C 6.3 °C 1006.7 hPa Calm   7.2 km/h 98% 1.0 mm 43 W/m2
08:44 6.8 °C 6.5 °C 1006.7 hPa NNW 3.5 km/h 7.2 km/h 98% 0.5 mm 54 W/m2
08:49 7.2 °C 6.8 °C 1006.7 hPa NW 3.5 km/h 7.2 km/h 97% 0.5 mm 59 W/m2
08:54 7.7 °C 7.3 °C 1006.7 hPa WSW 3.5 km/h 11.1 km/h 97% 0.5 mm 53 W/m2
08:59 8.0 °C 7.7 °C 1006.7 hPa WSW 1.1 km/h 11.1 km/h 98% 0.3 mm 48 W/m2
09:04 7.9 °C 7.4 °C 1006.7 hPa NW 1.1 km/h 7.2 km/h 97% 0.3 mm 36 W/m2
09:09 7.5 °C 7.1 °C 1006.7 hPa NNW 2.6 km/h 7.2 km/h 97% 0.3 mm 32 W/m2
09:14 7.4 °C 6.9 °C 1006.7 hPa NW 2.6 km/h 5.0 km/h 97% 0.3 mm 34 W/m2
09:19 7.3 °C 6.8 °C 1006.7 hPa NNW 3.5 km/h 5.0 km/h 97% 0.3 mm 28 W/m2
09:24 7.1 °C 6.7 °C 1006.7 hPa NW 2.6 km/h 6.1 km/h 97% 0.3 mm 34 W/m2
09:29 7.0 °C 6.6 °C 1006.7 hPa NW 1.1 km/h 6.1 km/h 97% 0.3 mm 54 W/m2
09:34 7.1 °C 6.7 °C 1006.7 hPa NW 2.6 km/h 6.1 km/h 97% 0.3 mm 58 W/m2
09:39 7.1 °C 6.7 °C 1006.7 hPa NW 1.1 km/h 6.1 km/h 97% 0.3 mm 52 W/m2
09:44 7.2 °C 6.8 °C 1006.7 hPa NNW 1.1 km/h 5.0 km/h 97% 0.5 mm 57 W/m2
09:49 7.2 °C 6.8 °C 1006.7 hPa NNW 1.1 km/h 5.0 km/h 97% 0.5 mm 46 W/m2
09:54 7.2 °C 6.8 °C 1006.7 hPa NW 2.6 km/h 6.1 km/h 97% 0.5 mm 32 W/m2
09:59 7.3 °C 6.8 °C 1007.0 hPa WNW 13.4 km/h 23.3 km/h 97% 0.5 mm 22 W/m2
10:04 7.4 °C 6.9 °C 1007.0 hPa West 13.4 km/h 23.3 km/h 97% 0.5 mm 30 W/m2
10:09 7.4 °C 6.8 °C 1007.0 hPa WSW 15.8 km/h 23.3 km/h 96% 0.3 mm 54 W/m2
10:14 7.3 °C 6.4 °C 1006.7 hPa WSW 17.2 km/h 23.3 km/h 94% 0.3 mm 70 W/m2
10:19 7.4 °C 6.2 °C 1006.7 hPa WSW 12.2 km/h 23.3 km/h 92% 0.3 mm 85 W/m2
10:24 7.5 °C 6.1 °C 1006.7 hPa WSW 7.2 km/h 19.5 km/h 91% 0.3 mm 91 W/m2
10:29 7.7 °C 6.0 °C 1006.7 hPa SW 14.8 km/h 20.9 km/h 89% 0.3 mm 85 W/m2
10:34 7.9 °C 5.9 °C 1006.7 hPa WSW 13.4 km/h 20.9 km/h 87% 0.3 mm 93 W/m2
10:39 8.0 °C 5.8 °C 1006.7 hPa SW 13.4 km/h 21.9 km/h 86% 0.3 mm 101 W/m2
10:44 8.1 °C 5.9 °C 1007.0 hPa WSW 13.4 km/h 21.9 km/h 86% 0.0 mm 58 W/m2
10:49 8.1 °C 5.7 °C 1006.7 hPa WSW 9.7 km/h 21.9 km/h 85% 0.0 mm 57 W/m2
10:54 8.0 °C 5.4 °C 1006.7 hPa WSW 14.8 km/h 21.9 km/h 84% 0.0 mm 53 W/m2
10:59 8.0 °C 5.3 °C 1006.7 hPa WSW 5.0 km/h 21.9 km/h 83% 0.0 mm 85 W/m2
11:04 8.0 °C 5.3 °C 1006.7 hPa WSW 14.8 km/h 21.9 km/h 83% 0.0 mm 108 W/m2
11:09 8.1 °C 5.2 °C 1006.7 hPa West 9.7 km/h 23.3 km/h 82% 0.0 mm 109 W/m2
11:14 8.2 °C 5.3 °C 1006.7 hPa WNW 14.8 km/h 24.5 km/h 82% 0.0 mm 118 W/m2
11:19 8.3 °C 5.4 °C 1006.7 hPa West 12.2 km/h 24.5 km/h 82% 0.0 mm 99 W/m2
11:24 8.3 °C 5.4 °C 1006.7 hPa WSW 6.1 km/h 24.5 km/h 82% 0.0 mm 83 W/m2
11:29 8.3 °C 5.4 °C 1006.7 hPa WSW 6.1 km/h 19.5 km/h 82% 0.0 mm 88 W/m2
11:34 8.3 °C 5.2 °C 1006.7 hPa West 11.1 km/h 17.2 km/h 81% 0.0 mm 104 W/m2
11:39 8.4 °C 5.2 °C 1006.3 hPa WSW 6.1 km/h 17.2 km/h 80% 0.0 mm 129 W/m2
11:44 8.6 °C 5.3 °C 1006.7 hPa West 9.7 km/h 15.8 km/h 80% 0.0 mm 145 W/m2
11:50 8.9 °C 5.7 °C 1006.3 hPa West 7.2 km/h 12.2 km/h 80% 0.0 mm 157 W/m2
11:55 9.0 °C 5.4 °C 1006.3 hPa WSW 7.2 km/h 17.2 km/h 78% 0.0 mm 148 W/m2
12:00 9.2 °C 5.6 °C 1006.3 hPa WSW 5.0 km/h 17.2 km/h 78% 0.0 mm 152 W/m2
12:18 9.5 °C 5.5 °C 1006.3 hPa SW 8.7 km/h 19.5 km/h 76% 0.0 mm 152 W/m2
12:23 9.4 °C 5.4 °C 1006.3 hPa WSW 15.8 km/h 21.9 km/h 76% 0.0 mm 121 W/m2
12:28 9.2 °C 5.2 °C 1006.3 hPa West 18.3 km/h 23.3 km/h 76% 0.0 mm 138 W/m2
12:33 9.1 °C 5.1 °C 1006.3 hPa WSW 11.1 km/h 23.3 km/h 76% 0.0 mm 137 W/m2
12:38 9.2 °C 5.2 °C 1006.3 hPa WSW 13.4 km/h 23.3 km/h 76% 0.0 mm 128 W/m2
12:43 9.1 °C 5.1 °C 1006.0 hPa West 15.8 km/h 23.3 km/h 76% 0.0 mm 100 W/m2
12:48 9.0 °C 5.2 °C 1006.0 hPa West 17.2 km/h 23.3 km/h 77% 0.0 mm 96 W/m2
12:53 8.9 °C 5.3 °C 1006.0 hPa WSW 17.2 km/h 25.6 km/h 78% 0.0 mm 99 W/m2
12:58 8.8 °C 5.3 °C 1005.6 hPa WSW 15.8 km/h 27.0 km/h 79% 0.0 mm 98 W/m2
13:03 8.6 °C 5.3 °C 1006.0 hPa WSW 19.5 km/h 31.7 km/h 80% 0.0 mm 99 W/m2
13:08 8.5 °C 5.4 °C 1006.0 hPa SW 24.5 km/h 33.1 km/h 81% 0.0 mm 54 W/m2
13:13 8.2 °C 5.5 °C 1006.0 hPa SW 17.2 km/h 33.1 km/h 83% 0.0 mm 70 W/m2
13:18 8.0 °C 5.4 °C 1006.0 hPa SW 17.2 km/h 30.6 km/h 84% 0.0 mm 68 W/m2
13:23 7.8 °C 5.4 °C 1006.3 hPa WSW 13.4 km/h 35.6 km/h 85% 0.0 mm 85 W/m2
13:28 7.6 °C 5.4 °C 1006.3 hPa West 17.2 km/h 35.6 km/h 86% 0.0 mm 101 W/m2
13:33 7.4 °C 5.6 °C 1006.0 hPa WSW 20.9 km/h 36.7 km/h 88% 0.0 mm 92 W/m2
13:38 7.4 °C 5.4 °C 1006.0 hPa SW 18.3 km/h 36.7 km/h 87% 0.0 mm 104 W/m2
13:43 7.6 °C 5.2 °C 1006.0 hPa WSW 21.9 km/h 35.6 km/h 85% 0.0 mm 72 W/m2
13:48 7.5 °C 5.2 °C 1006.3 hPa SW 27.0 km/h 35.6 km/h 85% 0.0 mm 70 W/m2
13:53 7.2 °C 4.8 °C 1006.0 hPa WSW 29.4 km/h 35.6 km/h 85% 0.0 mm 100 W/m2
13:58 7.3 °C 4.8 °C 1006.0 hPa WSW 23.3 km/h 41.7 km/h 84% 0.0 mm 136 W/m2
14:03 7.5 °C 5.0 °C 1006.3 hPa WSW 21.9 km/h 41.7 km/h 84% 0.0 mm 145 W/m2
14:08 7.6 °C 5.4 °C 1006.0 hPa WSW 28.0 km/h 39.3 km/h 86% 0.0 mm 129 W/m2
14:13 7.7 °C 5.3 °C 1006.0 hPa WSW 12.2 km/h 39.3 km/h 85% 0.0 mm 120 W/m2
14:18 7.6 °C 5.1 °C 1006.3 hPa WSW 17.2 km/h 30.6 km/h 84% 0.0 mm 107 W/m2
14:23 7.4 °C 4.7 °C 1006.0 hPa WSW 13.4 km/h 29.4 km/h 83% 0.0 mm 93 W/m2
14:28 7.0 °C 4.3 °C 1006.0 hPa West 8.7 km/h 29.4 km/h 83% 0.0 mm 82 W/m2
14:33 6.7 °C 4.3 °C 1006.3 hPa West 11.1 km/h 28.0 km/h 85% 0.0 mm 80 W/m2
14:38 6.3 °C 4.1 °C 1006.3 hPa West 13.4 km/h 28.0 km/h 86% 0.0 mm 83 W/m2
14:43 6.3 °C 4.1 °C 1006.3 hPa WNW 6.1 km/h 24.5 km/h 86% 0.0 mm 81 W/m2
14:48 6.2 °C 4.1 °C 1006.3 hPa West 11.1 km/h 21.9 km/h 86% 0.0 mm 45 W/m2
14:53 5.8 °C 3.8 °C 1006.7 hPa WSW 11.1 km/h 24.5 km/h 87% 0.0 mm 21 W/m2
14:58 5.6 °C 3.6 °C 1006.7 hPa West 14.8 km/h 24.5 km/h 87% 0.3 mm 16 W/m2
15:03 5.4 °C 3.4 °C 1006.7 hPa West 7.2 km/h 24.5 km/h 87% 0.3 mm 17 W/m2
15:08 5.3 °C 3.5 °C 1006.7 hPa WSW 11.1 km/h 23.3 km/h 88% 0.5 mm 19 W/m2
15:13 5.3 °C 3.6 °C 1006.7 hPa West 9.7 km/h 17.2 km/h 89% 0.5 mm 21 W/m2
15:18 5.3 °C 3.6 °C 1006.7 hPa West 8.7 km/h 20.9 km/h 89% 0.5 mm 21 W/m2
15:23 5.3 °C 3.5 °C 1006.7 hPa West 9.7 km/h 20.9 km/h 88% 0.5 mm 25 W/m2
15:28 5.3 °C 3.5 °C 1006.7 hPa WNW 11.1 km/h 19.5 km/h 88% 0.5 mm 26 W/m2
15:33 5.3 °C 3.5 °C 1006.7 hPa NW 7.2 km/h 19.5 km/h 88% 0.5 mm 22 W/m2
15:38 5.2 °C 3.4 °C 1006.7 hPa NW 7.2 km/h 12.2 km/h 88% 0.5 mm 26 W/m2
15:43 5.2 °C 3.4 °C 1006.7 hPa WNW 9.7 km/h 14.8 km/h 88% 0.5 mm 22 W/m2
15:48 5.1 °C 3.3 °C 1006.7 hPa NW 6.1 km/h 15.8 km/h 88% 0.5 mm 17 W/m2
15:53 5.0 °C 3.2 °C 1006.7 hPa NW 8.7 km/h 21.9 km/h 88% 1.0 mm 17 W/m2
15:58 4.9 °C 3.4 °C 1006.7 hPa NW 11.1 km/h 21.9 km/h 90% 0.5 mm 19 W/m2
16:03 4.9 °C 3.4 °C 1006.7 hPa NW 11.1 km/h 17.2 km/h 90% 1.0 mm 17 W/m2
16:08 4.8 °C 3.4 °C 1006.7 hPa NW 9.7 km/h 17.2 km/h 91% 0.5 mm 13 W/m2
16:13 4.7 °C 3.3 °C 1006.7 hPa NW 13.4 km/h 15.8 km/h 91% 0.5 mm 7 W/m2
16:18 4.6 °C 3.4 °C 1006.7 hPa NW 6.1 km/h 15.8 km/h 92% 0.5 mm 5 W/m2
16:23 4.5 °C 3.4 °C 1006.7 hPa NW 9.7 km/h 15.8 km/h 93% 1.0 mm 3 W/m2
16:28 4.5 °C 3.4 °C 1006.7 hPa NW 11.1 km/h 15.8 km/h 93% 1.0 mm 0 W/m2
16:33 4.5 °C 3.6 °C 1006.7 hPa NW 8.7 km/h 15.8 km/h 94% 1.3 mm 0 W/m2
16:38 4.3 °C 3.4 °C 1006.7 hPa NNW 9.7 km/h 15.8 km/h 94% 1.3 mm 0 W/m2
16:43 4.3 °C 3.4 °C 1006.7 hPa NNW 7.2 km/h 14.8 km/h 94% 1.3 mm 0 W/m2
16:48 4.3 °C 3.6 °C 1006.3 hPa NNW 9.7 km/h 13.4 km/h 95% 1.5 mm 0 W/m2
16:53 4.3 °C 3.6 °C 1006.7 hPa NNW 5.0 km/h 15.8 km/h 95% 1.3 mm 0 W/m2
16:58 4.3 °C 3.7 °C 1006.7 hPa NW 11.1 km/h 15.8 km/h 96% 1.5 mm 0 W/m2
17:03 4.3 °C 3.7 °C 1006.7 hPa NW 7.2 km/h 15.8 km/h 96% 1.3 mm 0 W/m2
17:08 4.3 °C 3.7 °C 1006.7 hPa NW 6.1 km/h 14.8 km/h 96% 1.3 mm 0 W/m2
17:13 4.3 °C 3.7 °C 1006.7 hPa NNW 3.5 km/h 12.2 km/h 96% 1.5 mm 0 W/m2
17:18 4.3 °C 3.9 °C 1006.3 hPa NNW 9.7 km/h 12.2 km/h 97% 1.8 mm 0 W/m2
17:23 4.2 °C 3.8 °C 1006.0 hPa North 8.7 km/h 15.8 km/h 97% 1.5 mm 0 W/m2
17:28 4.1 °C 3.7 °C 1006.7 hPa NNW 3.5 km/h 15.8 km/h 97% 1.5 mm 0 W/m2
17:33 4.2 °C 3.8 °C 1006.3 hPa NW 5.0 km/h 12.2 km/h 97% 1.3 mm 0 W/m2
17:38 4.3 °C 3.9 °C 1006.7 hPa NW 3.5 km/h 11.1 km/h 97% 1.3 mm 0 W/m2
17:43 4.6 °C 4.3 °C 1006.7 hPa NW 7.2 km/h 9.7 km/h 98% 1.3 mm 0 W/m2
17:48 5.2 °C 4.8 °C 1006.7 hPa West 7.2 km/h 19.5 km/h 97% 1.3 mm 0 W/m2
17:53 5.6 °C 5.0 °C 1006.3 hPa West 12.2 km/h 19.5 km/h 96% 1.3 mm 0 W/m2
17:58 5.8 °C 5.1 °C 1006.3 hPa WSW 23.3 km/h 29.4 km/h 95% 1.0 mm 0 W/m2
18:03 6.3 °C 4.9 °C 1006.3 hPa West 23.3 km/h 39.3 km/h 91% 1.0 mm 0 W/m2
18:08 6.7 °C 4.7 °C 1006.7 hPa WNW 29.4 km/h 48.9 km/h 87% 0.5 mm 0 W/m2
18:13 7.0 °C 4.2 °C 1006.7 hPa West 29.4 km/h 50.0 km/h 82% 0.5 mm 0 W/m2
18:18 7.1 °C 4.1 °C 1006.7 hPa WSW 31.7 km/h 50.0 km/h 81% 0.3 mm 0 W/m2
18:23 7.0 °C 3.8 °C 1006.7 hPa SW 31.7 km/h 52.6 km/h 80% 0.3 mm 0 W/m2
18:28 6.9 °C 3.5 °C 1006.7 hPa SW 30.6 km/h 52.6 km/h 79% 0.3 mm 0 W/m2
18:33 7.1 °C 3.5 °C 1006.7 hPa WSW 21.9 km/h 47.9 km/h 78% 0.3 mm 0 W/m2
18:38 7.0 °C 3.6 °C 1006.7 hPa West 15.8 km/h 47.9 km/h 79% 0.3 mm 0 W/m2
18:43 7.0 °C 3.6 °C 1006.7 hPa WSW 34.3 km/h 50.0 km/h 79% 0.3 mm 0 W/m2
18:48 7.1 °C 3.5 °C 1006.7 hPa WSW 24.5 km/h 50.0 km/h 78% 0.0 mm 0 W/m2
18:53 7.2 °C 3.8 °C 1007.0 hPa West 27.0 km/h 45.4 km/h 79% 0.0 mm 0 W/m2
18:58 7.1 °C 3.5 °C 1007.0 hPa West 39.3 km/h 50.0 km/h 78% 0.0 mm 0 W/m2
19:03 7.2 °C 3.3 °C 1007.0 hPa WSW 20.9 km/h 51.5 km/h 76% 0.0 mm 0 W/m2
19:08 7.3 °C 3.3 °C 1006.7 hPa WSW 27.0 km/h 51.5 km/h 76% 0.0 mm 0 W/m2
19:13 7.4 °C 3.1 °C 1007.0 hPa WSW 23.3 km/h 43.9 km/h 74% 0.0 mm 0 W/m2
19:18 7.3 °C 2.8 °C 1007.0 hPa West 19.5 km/h 41.7 km/h 73% 0.0 mm 0 W/m2
19:23 7.1 °C 2.6 °C 1007.0 hPa West 15.8 km/h 36.7 km/h 73% 0.0 mm 0 W/m2
19:28 7.1 °C 2.6 °C 1007.0 hPa West 19.5 km/h 34.3 km/h 73% 0.0 mm 0 W/m2
19:33 7.1 °C 2.8 °C 1007.0 hPa West 11.1 km/h 36.7 km/h 74% 0.0 mm 0 W/m2
19:38 7.2 °C 2.9 °C 1007.0 hPa West 20.9 km/h 39.3 km/h 74% 0.0 mm 0 W/m2
19:43 7.3 °C 3.2 °C 1006.7 hPa West 30.6 km/h 41.7 km/h 75% 0.0 mm 0 W/m2
19:48 7.3 °C 3.2 °C 1006.7 hPa WSW 34.3 km/h 43.9 km/h 75% 0.0 mm 0 W/m2
19:53 7.4 °C 3.3 °C 1006.7 hPa West 27.0 km/h 50.0 km/h 75% 0.0 mm 0 W/m2
19:58 7.3 °C 3.0 °C 1006.7 hPa West 18.3 km/h 50.0 km/h 74% 0.0 mm 0 W/m2
20:03 7.2 °C 2.7 °C 1007.0 hPa West 13.4 km/h 48.9 km/h 73% 0.0 mm 0 W/m2
20:08 7.2 °C 2.9 °C 1006.7 hPa WSW 25.6 km/h 37.8 km/h 74% 0.0 mm 0 W/m2
20:13 7.2 °C 2.9 °C 1007.0 hPa SW 14.8 km/h 37.8 km/h 74% 0.0 mm 0 W/m2
20:18 7.3 °C 3.2 °C 1006.7 hPa WSW 12.2 km/h 37.8 km/h 75% 0.0 mm 0 W/m2
20:23 7.3 °C 3.0 °C 1006.7 hPa West 25.6 km/h 33.1 km/h 74% 0.0 mm 0 W/m2
20:28 7.3 °C 2.8 °C 1006.7 hPa WSW 9.7 km/h 33.1 km/h 73% 0.0 mm 0 W/m2
20:33 7.3 °C 3.0 °C 1007.0 hPa WSW 18.3 km/h 34.3 km/h 74% 0.0 mm 0 W/m2
20:38 7.3 °C 3.2 °C 1007.0 hPa WSW 23.3 km/h 34.3 km/h 75% 0.0 mm 0 W/m2
20:43 7.2 °C 3.3 °C 1007.0 hPa WSW 19.5 km/h 40.4 km/h 76% 0.0 mm 0 W/m2
20:48 7.2 °C 3.4 °C 1006.7 hPa WSW 30.6 km/h 40.4 km/h 77% 0.0 mm 0 W/m2
20:53 7.2 °C 3.4 °C 1006.7 hPa WSW 24.5 km/h 39.3 km/h 77% 0.0 mm 0 W/m2
20:58 7.3 °C 3.3 °C 1006.7 hPa West 23.3 km/h 39.3 km/h 76% 0.0 mm 0 W/m2
21:03 7.3 °C 3.3 °C 1007.0 hPa West 36.7 km/h 46.5 km/h 76% 0.0 mm 0 W/m2
21:08 7.3 °C 3.3 °C 1006.7 hPa West 14.8 km/h 46.5 km/h 76% 0.0 mm 0 W/m2
21:13 7.3 °C 3.3 °C 1007.0 hPa WSW 18.3 km/h 46.5 km/h 76% 0.0 mm 0 W/m2
21:18 7.3 °C 3.2 °C 1006.7 hPa West 24.5 km/h 37.8 km/h 75% 0.0 mm 0 W/m2
21:23 7.3 °C 3.0 °C 1006.7 hPa West 17.2 km/h 36.7 km/h 74% 0.0 mm 0 W/m2
21:28 7.4 °C 3.1 °C 1006.7 hPa West 23.3 km/h 46.5 km/h 74% 0.0 mm 0 W/m2
21:33 7.3 °C 3.2 °C 1007.0 hPa WSW 24.5 km/h 46.5 km/h 75% 0.0 mm 0 W/m2
21:38 7.4 °C 3.3 °C 1006.7 hPa SW 29.4 km/h 40.4 km/h 75% 0.0 mm 0 W/m2
21:43 7.4 °C 3.3 °C 1006.7 hPa WSW 21.9 km/h 39.3 km/h 75% 0.0 mm 0 W/m2
21:48 7.5 °C 3.2 °C 1006.7 hPa West 17.2 km/h 39.3 km/h 74% 0.0 mm 0 W/m2
21:53 7.4 °C 3.3 °C 1006.7 hPa West 17.2 km/h 37.8 km/h 75% 0.0 mm 0 W/m2
21:58 7.3 °C 3.2 °C 1006.7 hPa SW 23.3 km/h 50.0 km/h 75% 0.0 mm 0 W/m2
22:03 7.2 °C 3.3 °C 1006.7 hPa SW 20.9 km/h 50.0 km/h 76% 0.0 mm 0 W/m2
22:08 7.3 °C 3.2 °C 1006.7 hPa WSW 15.8 km/h 43.9 km/h 75% 0.0 mm 0 W/m2
22:13 7.4 °C 3.1 °C 1006.7 hPa WSW 19.5 km/h 42.8 km/h 74% 0.0 mm 0 W/m2
22:18 7.4 °C 3.1 °C 1006.7 hPa WSW 20.9 km/h 42.8 km/h 74% 0.0 mm 0 W/m2
22:23 7.4 °C 3.3 °C 1006.7 hPa West 18.3 km/h 35.6 km/h 75% 0.0 mm 0 W/m2
22:28 7.3 °C 3.2 °C 1006.7 hPa West 19.5 km/h 48.9 km/h 75% 0.0 mm 0 W/m2
22:33 7.2 °C 3.1 °C 1006.7 hPa WSW 23.3 km/h 48.9 km/h 75% 0.0 mm 0 W/m2
22:38 7.2 °C 3.1 °C 1006.7 hPa SW 17.2 km/h 40.4 km/h 75% 0.0 mm 0 W/m2
22:43 7.2 °C 2.9 °C 1006.3 hPa WSW 8.7 km/h 40.4 km/h 74% 0.0 mm 0 W/m2
22:48 7.2 °C 3.1 °C 1006.7 hPa WSW 12.2 km/h 39.3 km/h 75% 0.0 mm 0 W/m2
22:53 7.3 °C 3.0 °C 1006.7 hPa WSW 15.8 km/h 29.4 km/h 74% 0.0 mm 0 W/m2
22:58 7.4 °C 3.1 °C 1006.3 hPa WSW 24.5 km/h 31.7 km/h 74% 0.0 mm 0 W/m2
23:03 7.4 °C 3.1 °C 1006.7 hPa WSW 13.4 km/h 33.1 km/h 74% 0.0 mm 0 W/m2
23:08 7.4 °C 3.1 °C 1006.7 hPa WSW 9.7 km/h 35.6 km/h 74% 0.0 mm 0 W/m2
23:13 7.4 °C 2.9 °C 1006.7 hPa WSW 14.8 km/h 35.6 km/h 73% 0.0 mm 0 W/m2
23:18 7.4 °C 2.7 °C 1006.7 hPa WSW 8.7 km/h 33.1 km/h 72% 0.0 mm 0 W/m2
23:23 7.5 °C 2.8 °C 1006.7 hPa West 17.2 km/h 34.3 km/h 72% 0.0 mm 0 W/m2
23:28 7.4 °C 2.7 °C 1006.7 hPa West 20.9 km/h 34.3 km/h 72% 0.0 mm 0 W/m2
23:33 7.4 °C 2.9 °C 1006.3 hPa WSW 15.8 km/h 29.4 km/h 73% 0.0 mm 0 W/m2
23:38 7.4 °C 2.9 °C 1006.3 hPa WSW 13.4 km/h 31.7 km/h 73% 0.0 mm 0 W/m2
23:43 7.4 °C 2.9 °C 1006.3 hPa WSW 14.8 km/h 31.7 km/h 73% 0.0 mm 0 W/m2
23:48 7.5 °C 3.0 °C 1006.3 hPa SW 11.1 km/h 28.0 km/h 73% 0.0 mm 0 W/m2
23:53 7.5 °C 3.0 °C 1006.3 hPa West 12.2 km/h 30.6 km/h 73% 0.0 mm 0 W/m2
23:58 7.5 °C 2.8 °C 1006.3 hPa West 12.2 km/h 30.6 km/h 72% 0.0 mm 0 W/m2
Northern Hawkes Bay. New Zealand Historic Data
Compliments of Weather Underground - 2 mb